Time;durP1;ratioP1;P1;durP2;ratioP2;P2;SDS_P1;SDS_P2;PMS_P1;PMS_P2;Temp;Humidity;BMP_temperature;BMP_pressure;BME280_temperature;BME280_humidity;BME280_pressure;Samples;Min_cycle;Max_cycle;Signal;HPM_P1;HPM_P2
2023/07/11 00:00:14;;;;;;;4.50;2.00;;;;;;;19.22;54.64;99867.70;106037;1256;61326;-81
2023/07/11 00:02:46;;;;;;;3.90;1.80;;;;;;;19.21;54.83;99868.88;106005;1251;63979;-79
2023/07/11 00:05:13;;;;;;;2.00;1.80;;;;;;;19.20;54.86;99870.21;106026;1251;61221;-78
2023/07/11 00:07:42;;;;;;;2.30;2.00;;;;;;;19.20;55.00;99868.71;106022;1251;61259;-79
2023/07/11 00:10:12;;;;;;;2.10;1.90;;;;;;;19.19;55.12;99872.54;106038;1257;66111;-82
2023/07/11 00:12:41;;;;;;;3.70;1.60;;;;;;;19.19;55.13;99867.19;105936;1251;61282;-81
2023/07/11 00:15:10;;;;;;;2.90;1.80;;;;;;;19.19;55.09;99869.70;105976;1251;62696;-78
2023/07/11 00:17:37;;;;;;;4.10;1.80;;;;;;;19.15;55.04;99871.77;105840;1257;61311;-79
2023/07/11 00:20:05;;;;;;;5.90;2.00;;;;;;;19.10;55.22;99866.65;105728;1251;61206;-77
2023/07/11 00:22:32;;;;;;;3.40;2.00;;;;;;;19.11;55.26;99866.38;105979;1256;65771;-79
2023/07/11 00:25:00;;;;;;;3.90;1.90;;;;;;;19.09;55.35;99867.95;105979;1251;61346;-81
2023/07/11 00:27:27;;;;;;;8.40;2.30;;;;;;;19.04;55.48;99872.77;105937;1256;64040;-79
2023/07/11 00:29:54;;;;;;;2.40;2.10;;;;;;;19.02;55.53;99867.85;105968;1256;61215;-77
2023/07/11 00:32:22;;;;;;;3.90;2.10;;;;;;;19.06;55.65;99862.23;105659;1251;61276;-80
2023/07/11 00:34:48;;;;;;;4.30;2.00;;;;;;;19.08;55.47;99859.95;105992;1251;65771;-78
2023/07/11 00:37:16;;;;;;;3.40;2.00;;;;;;;19.08;55.59;99863.33;105916;1251;61324;-76
2023/07/11 00:39:43;;;;;;;4.40;2.10;;;;;;;19.06;55.77;99865.98;105921;1256;64037;-78
2023/07/11 00:42:09;;;;;;;5.00;2.20;;;;;;;19.03;55.78;99864.31;105958;1251;61324;-78
2023/07/11 00:44:58;;;;;;;3.90;2.40;;;;;;;19.02;55.89;99866.08;105904;1251;61350;-76
2023/07/11 00:47:26;;;;;;;3.80;2.00;;;;;;;19.00;55.89;99865.30;105811;1256;65987;-76
2023/07/11 00:50:02;;;;;;;2.30;2.00;;;;;;;18.99;55.96;99864.91;105869;1251;61302;-76
2023/07/11 00:52:29;;;;;;;5.10;2.30;;;;;;;18.98;56.16;99862.14;105836;1256;63934;-75
2023/07/11 00:54:58;;;;;;;3.30;2.00;;;;;;;18.90;56.30;99859.46;105769;1253;61324;-76
2023/07/11 00:57:26;;;;;;;3.30;2.20;;;;;;;18.81;56.42;99853.39;105836;1251;61263;-76
2023/07/11 00:59:53;;;;;;;4.50;2.60;;;;;;;18.78;56.73;99857.77;105828;1251;65744;-77
2023/07/11 01:02:24;;;;;;;6.20;2.50;;;;;;;18.73;56.91;99858.02;105968;1251;61298;-76
2023/07/11 01:04:50;;;;;;;6.30;2.30;;;;;;;18.70;56.99;99857.20;105838;1256;63945;-75
2023/07/11 01:07:21;;;;;;;3.40;2.50;;;;;;;18.70;56.99;99855.22;105787;1251;61316;-75
2023/07/11 01:09:48;;;;;;;3.80;2.30;;;;;;;18.71;57.17;99855.10;105809;1251;61276;-76
2023/07/11 01:12:16;;;;;;;3.70;2.30;;;;;;;18.73;57.16;99855.39;105971;1251;65873;-76
2023/07/11 01:14:47;;;;;;;4.50;2.20;;;;;;;18.77;57.05;99853.59;106006;1251;61257;-75
2023/07/11 01:17:27;;;;;;;3.90;2.40;;;;;;;18.78;57.08;99859.02;106058;1251;64032;-75
2023/07/11 01:19:55;;;;;;;4.70;2.20;;;;;;;18.76;57.13;99856.95;105987;1251;61307;-76
2023/07/11 01:22:25;;;;;;;3.70;2.30;;;;;;;18.75;57.11;99855.30;105744;1251;61305;-75
2023/07/11 01:24:53;;;;;;;3.10;2.40;;;;;;;18.75;57.30;99854.80;105811;1251;64855;-76
2023/07/11 01:27:20;;;;;;;3.40;2.30;;;;;;;18.75;57.22;99857.60;105855;1251;61355;-76
2023/07/11 01:29:48;;;;;;;2.70;2.20;;;;;;;18.70;57.39;99859.67;105736;1251;64060;-76
2023/07/11 01:32:15;;;;;;;4.00;2.40;;;;;;;18.68;57.60;99859.77;105969;1251;61247;-76
2023/07/11 01:34:42;;;;;;;5.10;2.50;;;;;;;18.65;57.67;99864.19;105803;1252;61317;-76
2023/07/11 01:37:09;;;;;;;3.10;2.60;;;;;;;18.63;57.54;99864.38;105785;1256;65793;-76
2023/07/11 01:39:37;;;;;;;4.90;2.60;;;;;;;18.62;57.69;99867.80;105713;1254;61335;-77
2023/07/11 01:42:04;;;;;;;2.50;2.30;;;;;;;18.58;57.89;99868.95;105932;1256;61228;-76
2023/07/11 01:44:32;;;;;;;7.10;2.30;;;;;;;18.54;57.90;99867.77;105839;1254;61186;-76
2023/07/11 01:47:01;;;;;;;5.30;2.50;;;;;;;18.50;57.98;99870.95;105787;1253;61319;-76
2023/07/11 01:49:28;;;;;;;4.30;2.70;;;;;;;18.47;58.02;99871.33;105737;1254;64571;-76
2023/07/11 01:52:16;;;;;;;3.70;2.40;;;;;;;18.46;58.15;99874.02;105865;1252;61350;-76
2023/07/11 01:54:43;;;;;;;4.50;2.40;;;;;;;18.42;58.20;99873.87;105958;1253;63813;-76
2023/07/11 01:57:10;;;;;;;5.60;2.40;;;;;;;18.42;58.08;99874.23;105909;1254;61336;-76
2023/07/11 01:59:37;;;;;;;3.10;2.20;;;;;;;18.41;58.18;99872.38;105693;1253;61312;-76
2023/07/11 02:02:04;;;;;;;3.60;2.30;;;;;;;18.41;58.19;99874.85;105650;1256;66179;-76
2023/07/11 02:04:32;;;;;;;3.40;2.30;;;;;;;18.41;58.24;99876.28;105935;1256;61796;-76
2023/07/11 02:06:59;;;;;;;5.50;2.70;;;;;;;18.40;58.27;99876.48;105635;1254;63789;-76
2023/07/11 02:09:26;;;;;;;3.90;2.50;;;;;;;18.37;58.41;99876.32;105631;1253;61408;-76
2023/07/11 02:11:52;;;;;;;6.20;2.60;;;;;;;18.32;58.51;99875.27;105695;1251;61249;-77
2023/07/11 02:14:19;;;;;;;2.70;2.30;;;;;;;18.30;58.55;99875.89;105692;1257;66027;-77
2023/07/11 02:16:47;;;;;;;4.50;2.50;;;;;;;18.28;58.76;99879.16;105929;1251;61895;-76
2023/07/11 02:19:16;;;;;;;4.30;2.60;;;;;;;18.25;58.78;99877.65;105918;1251;63812;-76
2023/07/11 02:21:42;;;;;;;3.70;2.80;;;;;;;18.25;58.89;99878.46;105821;1251;61248;-77
2023/07/11 02:24:11;;;;;;;4.40;2.70;;;;;;;18.25;59.04;99875.18;105900;1251;61324;-77
2023/07/11 02:26:37;;;;;;;4.10;2.50;;;;;;;18.26;59.10;99874.04;105959;1252;65932;-76
2023/07/11 02:29:04;;;;;;;3.00;2.70;;;;;;;18.26;59.15;99873.70;105951;1254;61213;-77
2023/07/11 02:31:32;;;;;;;6.10;2.60;;;;;;;18.24;59.34;99877.45;105989;1257;63961;-77
2023/07/11 02:34:00;;;;;;;4.60;3.00;;;;;;;18.22;59.42;99877.91;105986;1258;61353;-76
2023/07/11 02:36:27;;;;;;;3.70;2.80;;;;;;;18.22;59.61;99876.84;105885;1253;61231;-76
2023/07/11 02:38:53;;;;;;;4.20;2.90;;;;;;;18.22;59.69;99872.86;105999;1251;64443;-77
2023/07/11 02:41:20;;;;;;;5.50;2.80;;;;;;;18.22;59.83;99871.63;106120;1251;61340;-77
2023/07/11 02:43:47;;;;;;;5.00;2.60;;;;;;;18.24;59.86;99873.20;105797;1251;63693;-77
2023/07/11 02:46:14;;;;;;;4.10;2.90;;;;;;;18.27;59.94;99873.02;105932;1254;61426;-76
2023/07/11 02:48:42;;;;;;;4.50;2.80;;;;;;;18.29;60.02;99873.66;105904;1253;61260;-76
2023/07/11 02:51:10;;;;;;;4.30;3.00;;;;;;;18.31;59.98;99877.34;105670;1256;66055;-76
2023/07/11 02:53:36;;;;;;;3.60;2.50;;;;;;;18.34;60.02;99875.29;105928;1253;61320;-76
2023/07/11 02:56:03;;;;;;;4.90;2.90;;;;;;;18.37;60.10;99877.27;105772;1254;64092;-76
2023/07/11 02:58:30;;;;;;;5.60;2.90;;;;;;;18.38;60.07;99878.92;105751;1253;61183;-75
2023/07/11 03:00:59;;;;;;;3.70;2.90;;;;;;;18.37;60.10;99878.67;105701;1253;61283;-76
2023/07/11 03:03:25;;;;;;;3.40;2.90;;;;;;;18.37;60.20;99877.92;106041;1256;65915;-76
2023/07/11 03:05:52;;;;;;;3.80;2.90;;;;;;;18.40;60.19;99876.35;106004;1251;61343;-76
2023/07/11 03:08:19;;;;;;;3.50;2.70;;;;;;;18.41;60.09;99877.80;105731;1251;62907;-74
2023/07/11 03:10:46;;;;;;;3.40;2.60;;;;;;;18.42;60.17;99876.75;105621;1251;61330;-76
2023/07/11 03:13:13;;;;;;;4.30;2.70;;;;;;;18.43;60.22;99880.06;105884;1251;61199;-76
2023/07/11 03:15:40;;;;;;;4.80;3.10;;;;;;;18.43;60.33;99876.98;105809;1255;65807;-77
2023/07/11 03:18:07;;;;;;;3.80;2.80;;;;;;;18.44;60.38;99880.86;105955;1251;61232;-76
2023/07/11 03:20:38;;;;;;;4.00;3.00;;;;;;;18.46;60.37;99879.34;105988;1253;63915;-75
2023/07/11 03:23:06;;;;;;;4.40;2.60;;;;;;;18.48;60.41;99879.02;105762;1257;61279;-75
2023/07/11 03:25:32;;;;;;;6.30;3.10;;;;;;;18.51;60.55;99880.70;105933;1257;61141;-76
2023/07/11 03:27:59;;;;;;;4.10;2.90;;;;;;;18.53;60.48;99880.91;105883;1257;65884;-76
2023/07/11 03:30:25;;;;;;;4.50;3.00;;;;;;;18.55;60.39;99882.30;105637;1258;61385;-75
2023/07/11 03:32:52;;;;;;;4.60;3.20;;;;;;;18.56;60.48;99881.86;105572;1257;63319;-76
2023/07/11 03:35:19;;;;;;;3.30;2.90;;;;;;;18.56;60.64;99877.73;105939;1253;61221;-76
2023/07/11 03:37:46;;;;;;;3.80;3.00;;;;;;;18.57;60.74;99874.08;105966;1251;61337;-76
2023/07/11 03:40:12;;;;;;;6.80;3.20;;;;;;;18.59;60.71;99869.54;105966;1256;65856;-76
2023/07/11 03:42:39;;;;;;;3.80;2.90;;;;;;;18.63;60.70;99870.51;105802;1251;61353;-76
2023/07/11 03:45:06;;;;;;;4.80;3.20;;;;;;;18.67;60.73;99869.81;105946;1251;63857;-75
2023/07/11 03:47:33;;;;;;;4.80;3.00;;;;;;;18.71;60.79;99868.45;105988;1251;61319;-76
2023/07/11 03:50:00;;;;;;;4.70;3.20;;;;;;;18.73;60.64;99869.23;105977;1251;61327;-76
2023/07/11 03:52:26;;;;;;;3.70;3.00;;;;;;;18.77;60.76;99867.66;105739;1251;61244;-76
2023/07/11 03:54:53;;;;;;;4.20;3.10;;;;;;;18.81;60.94;99863.67;105775;1251;61228;-76
2023/07/11 03:57:20;;;;;;;3.90;3.00;;;;;;;18.86;60.85;99867.45;105791;1251;64048;-76
2023/07/11 03:59:46;;;;;;;5.90;3.30;;;;;;;18.91;60.91;99869.02;105850;1251;61995;-76
2023/07/11 04:02:15;;;;;;;5.60;3.00;;;;;;;19.01;60.68;99869.22;105870;1251;61257;-76
2023/07/11 04:04:42;;;;;;;3.10;2.80;;;;;;;19.08;60.55;99869.23;105844;1252;65793;-76
2023/07/11 04:07:09;;;;;;;5.00;3.40;;;;;;;19.13;60.50;99870.64;105894;1251;61267;-76
2023/07/11 04:09:40;;;;;;;4.90;3.30;;;;;;;19.19;60.46;99870.73;105822;1256;63820;-76
2023/07/11 04:12:09;;;;;;;4.90;3.30;;;;;;;19.25;60.62;99868.05;105779;1254;61350;-77
2023/07/11 04:14:37;;;;;;;6.30;3.10;;;;;;;19.27;60.48;99864.27;105690;1253;61222;-76
2023/07/11 04:17:03;;;;;;;4.80;3.30;;;;;;;19.28;60.45;99863.41;105791;1252;65928;-76
2023/07/11 04:19:31;;;;;;;3.80;3.10;;;;;;;19.30;60.46;99860.57;105722;1253;61198;-77
2023/07/11 04:21:58;;;;;;;5.30;3.10;;;;;;;19.35;60.63;99858.46;105717;1257;64087;-76
2023/07/11 04:24:25;;;;;;;6.10;3.30;;;;;;;19.41;60.56;99864.63;105762;1253;61221;-75
2023/07/11 04:26:52;;;;;;;4.30;3.00;;;;;;;19.47;60.52;99867.85;105635;1253;61213;-77
2023/07/11 04:29:18;;;;;;;4.60;3.20;;;;;;;19.55;60.44;99865.34;105592;1257;65842;-76
2023/07/11 04:31:48;;;;;;;5.40;3.10;;;;;;;19.62;60.46;99871.81;105744;1253;61317;-76
2023/07/11 04:34:15;;;;;;;8.40;3.30;;;;;;;19.67;60.33;99875.31;105727;1253;63930;-76
2023/07/11 04:36:41;;;;;;;4.80;3.30;;;;;;;19.67;60.39;99881.20;105690;1253;61321;-76
2023/07/11 04:39:09;;;;;;;4.70;3.50;;;;;;;19.69;60.30;99881.64;105749;1253;61270;-76
2023/07/11 04:41:37;;;;;;;5.60;3.80;;;;;;;19.74;60.22;99880.98;105817;1252;65840;-76
2023/07/11 04:44:04;;;;;;;7.50;3.50;;;;;;;19.79;60.20;99877.94;105788;1251;61347;-76
2023/07/11 04:46:31;;;;;;;5.00;3.10;;;;;;;19.83;60.02;99876.16;105864;1253;63829;-76
2023/07/11 04:48:59;;;;;;;5.70;3.70;;;;;;;19.92;59.97;99875.85;105933;1253;61120;-77
2023/07/11 04:51:26;;;;;;;7.60;3.50;;;;;;;19.98;59.84;99872.40;105781;1253;61241;-76
2023/07/11 04:53:52;;;;;;;5.10;3.50;;;;;;;20.06;59.76;99869.69;105799;1252;65725;-76
2023/07/11 04:56:19;;;;;;;4.50;3.30;;;;;;;20.11;59.50;99866.14;105860;1252;61270;-77
2023/07/11 04:58:46;;;;;;;6.80;3.40;;;;;;;20.13;59.45;99867.42;105748;1254;74244;-76
2023/07/11 05:01:14;;;;;;;5.50;3.40;;;;;;;20.20;59.44;99866.77;105755;1253;61890;-77
2023/07/11 05:03:41;;;;;;;7.10;3.20;;;;;;;20.26;59.30;99869.71;105870;1252;61235;-77
2023/07/11 05:06:08;;;;;;;4.80;3.20;;;;;;;20.33;59.28;99867.85;105901;1256;66020;-77
2023/07/11 05:08:38;;;;;;;4.00;3.60;;;;;;;20.37;59.26;99870.85;105793;1251;61340;-77
2023/07/11 05:11:16;;;;;;;4.40;3.50;;;;;;;20.40;58.95;99872.80;105765;1254;63828;-77
2023/07/11 05:13:45;;;;;;;4.80;3.60;;;;;;;20.43;58.78;99872.17;105698;1251;61268;-77
2023/07/11 05:16:16;;;;;;;8.40;3.40;;;;;;;20.47;58.99;99875.81;105858;1251;61295;-77
2023/07/11 05:18:45;;;;;;;3.00;2.40;;;;;;;20.56;58.79;99875.40;105709;1257;65899;-76
2023/07/11 05:21:14;;;;;;;5.30;3.70;;;;;;;20.63;58.78;99876.98;105832;1253;61442;-77
2023/07/11 05:23:41;;;;;;;5.60;3.70;;;;;;;20.69;58.80;99872.52;105796;1251;63726;-76
2023/07/11 05:26:07;;;;;;;6.80;3.60;;;;;;;20.72;58.73;99867.87;105757;1251;61211;-77
2023/07/11 05:28:35;;;;;;;4.80;3.70;;;;;;;20.77;58.63;99864.64;105795;1251;61231;-77
2023/07/11 05:31:05;;;;;;;5.90;3.70;;;;;;;20.77;58.49;99865.48;105876;1255;65888;-76
2023/07/11 05:33:33;;;;;;;5.80;3.30;;;;;;;20.83;58.51;99870.89;105734;1251;61352;-77
2023/07/11 05:38:54;;;;;;;5.00;3.60;;;;;;;21.01;58.45;99865.30;105914;1252;61220;-77
2023/07/11 05:41:21;;;;;;;6.50;3.20;;;;;;;21.10;58.47;99865.05;105852;1251;61220;-77
2023/07/11 05:43:48;;;;;;;3.80;3.40;;;;;;;21.20;58.41;99866.10;105919;1253;66022;-77
2023/07/11 05:46:15;;;;;;;5.30;3.20;;;;;;;21.29;58.01;99867.67;105834;1251;61289;-77
2023/07/11 05:48:42;;;;;;;4.50;3.50;;;;;;;21.29;57.70;99868.62;105807;1251;63792;-77
2023/07/11 05:51:10;;;;;;;5.60;3.30;;;;;;;21.32;57.55;99877.92;105733;1257;61324;-76
2023/07/11 05:53:37;;;;;;;4.20;3.50;;;;;;;21.38;57.51;99870.88;105920;1253;61900;-76
2023/07/11 05:56:04;;;;;;;8.20;3.80;;;;;;;21.44;57.50;99873.87;105833;1256;66014;-76
2023/07/11 05:58:33;;;;;;;6.20;3.40;;;;;;;21.48;57.56;99869.65;105800;1253;61355;-76
2023/07/11 06:01:00;;;;;;;4.90;3.30;;;;;;;21.54;57.57;99870.85;105645;1253;64052;-76
2023/07/11 06:03:29;;;;;;;4.10;3.20;;;;;;;21.60;57.58;99867.66;105929;1253;61327;-76
2023/07/11 06:06:03;;;;;;;7.00;3.70;;;;;;;21.65;57.30;99862.39;105776;1253;61303;-76
2023/07/11 06:08:33;;;;;;;4.40;3.10;;;;;;;21.71;57.19;99856.20;105687;1257;66013;-75
2023/07/11 06:11:00;;;;;;;3.60;3.00;;;;;;;21.78;57.18;99856.15;105866;1253;61316;-76
2023/07/11 06:13:29;;;;;;;3.20;2.90;;;;;;;21.84;57.20;99854.79;105931;1253;63918;-75
2023/07/11 06:16:00;;;;;;;5.00;3.40;;;;;;;21.92;57.33;99851.19;105844;1251;61323;-76
2023/07/11 06:18:27;;;;;;;4.30;3.30;;;;;;;21.97;56.98;99850.27;105814;1253;61173;-75
2023/07/11 06:20:53;;;;;;;3.00;2.60;;;;;;;22.04;56.82;99847.24;105860;1256;61263;-76
2023/07/11 06:23:21;;;;;;;3.80;2.90;;;;;;;22.11;56.28;99847.05;105680;1254;61284;-74
2023/07/11 06:25:48;;;;;;;3.30;2.30;;;;;;;22.18;55.98;99845.50;105699;1255;63916;-73
2023/07/11 06:28:15;;;;;;;4.30;2.30;;;;;;;22.30;55.43;99843.36;105866;1253;61323;-74
2023/07/11 06:30:42;;;;;;;3.20;2.40;;;;;;;22.42;54.60;99850.25;105851;1253;61160;-74
2023/07/11 06:33:10;;;;;;;2.50;2.20;;;;;;;22.52;53.96;99850.67;105689;1256;66116;-74
2023/07/11 06:35:39;;;;;;;4.50;2.40;;;;;;;22.60;53.73;99850.73;105699;1256;61303;-74
2023/07/11 06:38:05;;;;;;;5.00;2.30;;;;;;;22.66;52.41;99848.34;105756;1254;63993;-75
2023/07/11 06:40:33;;;;;;;5.60;2.20;;;;;;;22.69;51.81;99838.52;105748;1251;61298;-76
2023/07/11 06:43:00;;;;;;;3.70;2.10;;;;;;;22.69;51.63;99839.64;105766;1251;61211;-75
2023/07/11 06:45:27;;;;;;;2.80;1.90;;;;;;;22.75;51.16;99833.67;105735;1256;66870;-73
2023/07/11 06:47:53;;;;;;;3.70;2.00;;;;;;;22.82;50.69;99832.86;105962;1255;61318;-73
2023/07/11 06:50:20;;;;;;;2.30;1.90;;;;;;;22.87;50.91;99835.07;105966;1253;63940;-73
2023/07/11 06:52:48;;;;;;;3.90;2.10;;;;;;;22.95;51.27;99838.04;105772;1252;61231;-74
2023/07/11 06:55:14;;;;;;;7.00;2.40;;;;;;;23.05;51.33;99840.40;105712;1251;61430;-74
2023/07/11 06:57:42;;;;;;;17.50;2.60;;;;;;;23.13;51.14;99844.33;105969;1255;65803;-74
2023/07/11 07:00:10;;;;;;;5.20;2.30;;;;;;;23.20;50.97;99846.95;105970;1251;61256;-74
2023/07/11 07:02:37;;;;;;;2.40;2.10;;;;;;;23.29;50.53;99845.43;105781;1251;62687;-75
2023/07/11 07:05:04;;;;;;;2.30;2.00;;;;;;;23.37;50.00;99836.48;105851;1251;61282;-74
2023/07/11 07:07:31;;;;;;;3.30;2.20;;;;;;;23.42;49.97;99836.39;105837;1253;61238;-74
2023/07/11 07:10:00;;;;;;;4.50;2.20;;;;;;;23.51;50.05;99841.27;105988;1253;66084;-75
2023/07/11 07:12:26;;;;;;;3.50;1.90;;;;;;;23.59;49.71;99839.81;105618;1251;61282;-74
2023/07/11 07:14:53;;;;;;;2.70;1.90;;;;;;;23.62;48.86;99836.21;105798;1255;64130;-74
2023/07/11 07:17:20;;;;;;;3.50;2.00;;;;;;;23.65;48.46;99829.23;105736;1251;61571;-74
2023/07/11 07:19:47;;;;;;;3.40;1.90;;;;;;;23.69;48.13;99830.66;105785;1251;61426;-73
2023/07/11 07:22:15;;;;;;;2.70;2.00;;;;;;;23.74;47.69;99822.89;105808;1252;66137;-73
2023/07/11 07:24:42;;;;;;;4.40;2.20;;;;;;;23.82;48.16;99820.13;105919;1253;61337;-71
2023/07/11 07:27:09;;;;;;;7.30;1.90;;;;;;;23.94;48.55;99821.22;105949;1251;64100;-72
2023/07/11 07:29:54;;;;;;;2.60;2.20;;;;;;;24.09;48.14;99825.84;105899;1255;61331;-72
2023/07/11 07:32:20;;;;;;;2.80;2.30;;;;;;;24.18;48.10;99826.21;105914;1251;61222;-72
2023/07/11 07:34:47;;;;;;;4.20;2.20;;;;;;;24.26;47.86;99827.16;105719;1251;217259;-72
2023/07/11 07:37:14;;;;;;;3.00;1.90;;;;;;;24.33;47.42;99823.66;105956;1252;61341;-71
2023/07/11 07:39:41;;;;;;;3.40;1.90;;;;;;;24.38;47.31;99820.03;105969;1251;63982;-73
2023/07/11 07:42:07;;;;;;;3.50;2.20;;;;;;;24.43;47.39;99819.02;105941;1251;61310;-72
2023/07/11 07:44:34;;;;;;;3.30;2.20;;;;;;;24.50;47.44;99819.98;105944;1251;61342;-73
2023/07/11 07:47:00;;;;;;;9.90;2.40;;;;;;;24.54;47.01;99817.44;105954;1254;61237;-72
2023/07/11 07:49:27;;;;;;;4.20;2.20;;;;;;;24.61;47.09;99814.48;105957;1251;61398;-73
2023/07/11 07:52:00;;;;;;;3.80;2.00;;;;;;;24.72;47.09;99812.64;105820;1253;63890;-71
2023/07/11 07:54:26;;;;;;;2.60;2.00;;;;;;;24.89;46.09;99812.08;105839;1253;61336;-71
2023/07/11 07:56:53;;;;;;;4.20;2.00;;;;;;;24.99;45.64;99812.16;105593;1253;62022;-73
2023/07/11 07:59:20;;;;;;;3.30;2.20;;;;;;;25.07;46.07;99819.31;105765;1257;76855;-72
2023/07/11 08:01:46;;;;;;;5.10;2.00;;;;;;;25.16;45.47;99828.16;105766;1253;61360;-72
2023/07/11 08:04:13;;;;;;;3.50;1.90;;;;;;;25.16;44.73;99825.41;105642;1253;64047;-72
2023/07/11 08:06:41;;;;;;;1.80;1.60;;;;;;;25.20;44.84;99826.48;105794;1253;61215;-72
2023/07/11 08:09:08;;;;;;;4.70;1.80;;;;;;;25.31;45.10;99826.10;105966;1252;61286;-73
2023/07/11 08:11:36;;;;;;;4.10;1.90;;;;;;;25.48;44.73;99830.13;105733;1256;66079;-75
2023/07/11 08:14:03;;;;;;;8.00;2.00;;;;;;;25.59;44.14;99823.58;106073;1253;61243;-72
2023/07/11 08:16:30;;;;;;;5.70;1.80;;;;;;;25.72;43.97;99823.88;105896;1251;64015;-72
2023/07/11 08:19:04;;;;;;;4.20;1.80;;;;;;;25.84;43.68;99826.31;105780;1251;61352;-73
2023/07/11 08:21:31;;;;;;;4.40;1.80;;;;;;;25.94;43.77;99825.76;105834;1254;61206;-72
2023/07/11 08:23:58;;;;;;;2.80;1.90;;;;;;;26.06;43.40;99821.96;105774;1256;65969;-73
2023/07/11 08:26:25;;;;;;;3.20;1.90;;;;;;;26.12;42.34;99820.05;105694;1257;61306;-73
2023/07/11 08:28:51;;;;;;;2.40;1.90;;;;;;;26.10;42.28;99831.71;105685;1253;64645;-73
2023/07/11 08:31:20;;;;;;;3.30;2.10;;;;;;;26.06;42.38;99838.48;105882;1251;61261;-73
2023/07/11 08:33:47;;;;;;;3.20;1.80;;;;;;;25.92;42.10;99837.62;105913;1252;61209;-73
2023/07/11 08:36:14;;;;;;;2.70;1.80;;;;;;;25.81;42.33;99833.31;105969;1255;65920;-73
2023/07/11 08:38:44;;;;;;;4.50;2.00;;;;;;;25.72;42.90;99838.71;105778;1253;61415;-71
2023/07/11 08:41:26;;;;;;;3.60;1.90;;;;;;;25.66;42.99;99833.65;106035;1251;64129;-72
2023/07/11 08:44:00;;;;;;;2.00;1.80;;;;;;;25.59;42.45;99833.42;106067;1251;61135;-72
2023/07/11 08:46:27;;;;;;;2.30;1.80;;;;;;;25.55;42.36;99831.61;105877;1251;61339;-71
2023/07/11 08:48:57;;;;;;;2.10;1.70;;;;;;;25.55;42.73;99829.77;105896;1256;66039;-71
2023/07/11 08:51:33;;;;;;;2.10;1.90;;;;;;;25.55;43.11;99835.08;105786;1253;61324;-71
2023/07/11 08:54:10;;;;;;;2.10;1.80;;;;;;;25.58;43.41;99836.48;105709;1256;64062;-72
2023/07/11 08:56:42;;;;;;;2.20;2.00;;;;;;;25.64;43.73;99837.25;105926;1251;61171;-71
2023/07/11 08:59:25;;;;;;;1.90;1.70;;;;;;;25.72;43.87;99839.02;106022;1251;61221;-71
2023/07/11 09:02:01;;;;;;;2.60;2.30;;;;;;;25.84;43.84;99836.55;106000;1254;65906;-71
2023/07/11 09:04:29;;;;;;;3.70;1.90;;;;;;;25.94;43.93;99833.13;105874;1253;61342;-76
2023/07/11 09:07:03;;;;;;;3.10;1.80;;;;;;;26.09;43.45;99833.40;105682;1254;64092;-74
2023/07/11 09:09:32;;;;;;;2.00;1.70;;;;;;;26.24;43.23;99833.25;105617;1258;61312;-74
2023/07/11 09:12:07;;;;;;;3.60;1.90;;;;;;;26.34;42.76;99831.90;105881;1256;61193;-74
2023/07/11 09:15:05;;;;;;;3.70;1.50;;;;;;;26.41;41.68;99833.88;105960;1251;65912;-72
2023/07/11 09:18:05;;;;;;;4.50;1.90;;;;;;;26.55;41.56;99830.25;105706;1253;61410;-73
2023/07/11 09:20:47;;;;;;;4.80;1.60;;;;;;;26.66;41.73;99832.65;105560;1253;64082;-74
2023/07/11 09:23:39;;;;;;;2.30;1.70;;;;;;;26.70;41.67;99834.19;105761;1258;61236;-74
2023/07/11 09:26:09;;;;;;;2.40;1.70;;;;;;;26.78;42.11;99838.48;105733;1253;61237;-74
2023/07/11 09:28:37;;;;;;;2.30;1.60;;;;;;;26.91;41.60;99831.90;105914;1254;65463;-73
2023/07/11 09:31:10;;;;;;;2.20;1.80;;;;;;;27.03;41.02;99828.09;105691;1258;61221;-74
2023/07/11 09:33:41;;;;;;;2.80;1.70;;;;;;;27.10;40.57;99825.94;105780;1255;64010;-74
2023/07/11 09:36:30;;;;;;;2.80;1.60;;;;;;;27.18;40.75;99823.59;105627;1253;61304;-73
2023/07/11 09:39:25;;;;;;;2.80;1.80;;;;;;;27.30;40.74;99822.98;105965;1253;61245;-74
2023/07/11 09:42:03;;;;;;;3.60;1.70;;;;;;;27.47;40.63;99818.55;105694;1258;65700;-74
2023/07/11 09:44:29;;;;;;;2.50;1.80;;;;;;;27.51;39.83;99817.21;105881;1253;61367;-75
2023/07/11 09:46:58;;;;;;;7.30;1.90;;;;;;;27.45;39.89;99817.82;106023;1253;64075;-75
2023/07/11 09:49:28;;;;;;;2.10;1.40;;;;;;;27.50;40.01;99817.90;105859;1253;61248;-75
2023/07/11 09:51:59;;;;;;;1.80;1.40;;;;;;;27.65;38.78;99820.39;105783;1251;61248;-75
2023/07/11 09:54:27;;;;;;;1.50;1.40;;;;;;;27.78;39.09;99818.32;105652;1251;66088;-75
2023/07/11 09:56:55;;;;;;;1.60;1.40;;;;;;;27.99;38.83;99814.50;105827;1252;61116;-74
2023/07/11 09:59:22;;;;;;;2.40;1.40;;;;;;;28.17;38.96;99811.89;105820;1251;64030;-75
2023/07/11 10:01:53;;;;;;;3.00;1.60;;;;;;;28.37;38.69;99811.69;105825;1253;61254;-75
2023/07/11 10:04:22;;;;;;;3.90;1.50;;;;;;;28.51;37.62;99811.92;105805;1253;61289;-74
2023/07/11 10:07:00;;;;;;;1.70;1.30;;;;;;;28.55;37.49;99819.63;105901;1254;66008;-73
2023/07/11 10:09:32;;;;;;;2.40;1.30;;;;;;;28.53;36.35;99825.66;105672;1253;61259;-73
2023/07/11 10:12:00;;;;;;;2.10;1.30;;;;;;;28.42;36.03;99827.63;105762;1253;63845;-74
2023/07/11 10:14:32;;;;;;;1.30;1.20;;;;;;;28.37;35.76;99823.00;105656;1253;61269;-74
2023/07/11 10:17:02;;;;;;;;;;;;;;;28.31;36.68;99816.30;105739;1256;61246;-73
2023/07/11 10:19:28;;;;;;;3.80;1.50;;;;;;;28.38;37.32;99810.66;105737;1252;65983;-72
2023/07/11 10:21:58;;;;;;;4.30;1.70;;;;;;;28.54;37.59;99810.66;105751;1256;61276;-73
2023/07/11 10:24:26;;;;;;;3.70;1.30;;;;;;;28.80;36.97;99809.34;105751;1259;64085;-73
2023/07/11 10:27:00;;;;;;;1.40;1.20;;;;;;;29.11;36.41;99805.28;105765;1253;61145;-74
2023/07/11 10:29:28;;;;;;;2.80;1.50;;;;;;;29.34;36.30;99799.94;105917;1253;61267;-74
2023/07/11 10:32:04;;;;;;;2.90;1.30;;;;;;;29.58;36.28;99800.77;105787;1251;64878;-74
2023/07/11 10:34:53;;;;;;;1.80;1.30;;;;;;;29.80;35.88;99799.56;105804;1253;61216;-72
2023/07/11 10:37:30;;;;;;;4.50;1.40;;;;;;;29.98;34.92;99801.95;106037;1253;62605;-73
2023/07/11 10:40:17;;;;;;;2.30;1.50;;;;;;;29.96;34.75;99801.79;105978;1253;61206;-74
2023/07/11 10:42:49;;;;;;;3.60;1.70;;;;;;;29.88;35.13;99802.39;105541;1253;61343;-73
2023/07/11 10:45:40;;;;;;;3.00;1.50;;;;;;;29.96;35.73;99806.95;105763;1257;65813;-73
2023/07/11 10:48:32;;;;;;;1.40;1.30;;;;;;;30.15;35.79;99804.86;105766;1253;61241;-73
2023/07/11 10:51:01;;;;;;;2.20;1.30;;;;;;;30.43;35.42;99808.55;105847;1253;63993;-72
2023/07/11 10:53:39;;;;;;;2.00;1.50;;;;;;;30.63;34.87;99813.83;105724;1253;62085;-72
2023/07/11 10:56:13;;;;;;;2.20;1.60;;;;;;;30.67;34.64;99812.16;105893;1252;61260;-73
2023/07/11 10:58:41;;;;;;;2.10;1.60;;;;;;;30.67;34.73;99809.59;105629;1251;64792;-72
2023/07/11 11:01:23;;;;;;;3.20;1.70;;;;;;;30.72;35.46;99811.84;105970;1255;61279;-73
2023/07/11 11:03:55;;;;;;;2.50;1.40;;;;;;;30.88;34.83;99812.48;105944;1254;63901;-72
2023/07/11 11:06:28;;;;;;;2.90;1.60;;;;;;;30.88;34.33;99816.20;105859;1257;61157;-74
2023/07/11 11:09:15;;;;;;;5.60;1.60;;;;;;;30.78;33.90;99819.49;105759;1253;61322;-72
2023/07/11 11:12:35;;;;;;;32.20;2.30;;;;;;;30.60;33.92;99820.12;105917;1253;65796;-72
2023/07/11 11:15:17;;;;;;;5.60;1.90;;;;;;;30.28;34.03;99818.83;105489;1253;61353;-73
2023/07/11 11:18:23;;;;;;;1.80;1.50;;;;;;;30.00;34.77;99816.09;105789;1255;63831;-72
2023/07/11 11:21:05;;;;;;;4.40;1.50;;;;;;;29.81;34.73;99813.34;105599;1255;61179;-72
2023/07/11 11:23:55;;;;;;;2.50;1.60;;;;;;;29.75;35.52;99813.79;105895;1253;61321;-73
2023/07/11 11:26:50;;;;;;;2.80;1.50;;;;;;;29.91;35.20;99812.00;105859;1253;64646;-73
2023/07/11 11:29:23;;;;;;;2.50;1.40;;;;;;;30.18;34.53;99810.76;105817;1253;61257;-72
2023/07/11 11:31:57;;;;;;;2.20;1.40;;;;;;;30.42;33.75;99812.19;105795;1253;63841;-75
2023/07/11 11:34:33;;;;;;;2.70;1.50;;;;;;;30.64;33.27;99812.90;105945;1256;61113;-75
2023/07/11 11:37:17;;;;;;;3.80;1.50;;;;;;;30.80;33.00;99810.95;105863;1253;61125;-75
2023/07/11 11:39:45;;;;;;;1.40;1.30;;;;;;;30.81;33.30;99813.73;105737;1254;65896;-77